Airfield :
LOGIN :

Register | Disclaimer

   EN    FR    IT 

 










Legend :    VFR   Marginal VFR   IFR   Intensive IFR   Very Intensive IFR
Visi :
Ceiling :
>= 8 km
>= 3000ft
5 to 8 km
1000 to 3000 ft
1500m to 5 km
500 to 1000 ft
800 to 1500m
200 to 500 ft
< 800m
< 200 ft
Symbols :   Thunderstorms  Fog  Heavy snow  Heavy precipitations  Wind > 20 kt
SIGMETs :     Misc.  Thunderstorms  Icing  Turbulence  Mountain Waves  Volcanic Ashes







- Airport Elevation : 348 ft
- IATA code : STN
- Download approach charts


EGSS - London Stansted

CURRENT METAR :
  • 212220Z AUTO 02005KT 9999 OVC036 03/01 Q1026

EXPIRED METARs :
  • 212150Z AUTO 03005KT 9999 OVC035 03/02 Q1026
  • 212120Z AUTO 03006KT 9000 OVC035 04/02 Q1026
  • 212050Z AUTO 03007KT 8000 OVC033 04/02 Q1026
  • 212020Z AUTO 03004KT 7000 OVC028 04/02 Q1026
  • 211950Z AUTO 04006KT 9000 OVC023 04/02 Q1026

TAF AMD TAF EGSS
Valid from the 21 at 22:00 until the 23 at 00:00 UTC


212226Z 2122/2224 05005KT 9999 SCT010 BKN030
TEMPO 2122/2206 7000 BKN009
PROB30
TEMPO 2122/2206 4000 BR
ATIS : +44 1279 669 325
No reported NOTAMs for that airfield.



MET'MAP, your aeronautical weather chart ! - Copyright ORBIFLY December 2007 - Disclaimer

ORBIFLY MET'MAP TEAM :

Programming & Development : Alexandra Zaïnal
Concept & Development : Baudouin d'Aumeries
Co-Development & Prog : Marc-Olivier Méhu
Technical & hardware support : Manuel Goepfert

Contact : metmap@orbifly.com




SOURCES & CREDITS :

   NOAA